sensor_id;sensor_type;location;lat;lon;timestamp;P1;durP1;ratioP1;P2;durP2;ratioP2
6223;SDS011;3145;42.726;23.342;2023-06-19T00:01:57;9.73;;;8.70;;
6223;SDS011;3145;42.726;23.342;2023-06-19T00:04:24;12.20;;;9.37;;
6223;SDS011;3145;42.726;23.342;2023-06-19T00:06:51;11.03;;;9.33;;
6223;SDS011;3145;42.726;23.342;2023-06-19T00:09:19;11.37;;;10.17;;
6223;SDS011;3145;42.726;23.342;2023-06-19T00:11:46;10.63;;;9.57;;
6223;SDS011;3145;42.726;23.342;2023-06-19T00:14:13;9.90;;;8.93;;
6223;SDS011;3145;42.726;23.342;2023-06-19T00:16:40;11.87;;;9.10;;
6223;SDS011;3145;42.726;23.342;2023-06-19T00:19:06;11.20;;;8.80;;
6223;SDS011;3145;42.726;23.342;2023-06-19T00:21:33;15.20;;;9.57;;
6223;SDS011;3145;42.726;23.342;2023-06-19T00:24:00;10.70;;;9.80;;
6223;SDS011;3145;42.726;23.342;2023-06-19T00:26:28;11.50;;;9.50;;
6223;SDS011;3145;42.726;23.342;2023-06-19T00:28:55;10.53;;;9.43;;
6223;SDS011;3145;42.726;23.342;2023-06-19T00:31:22;11.50;;;10.30;;
6223;SDS011;3145;42.726;23.342;2023-06-19T00:33:49;12.97;;;9.73;;
6223;SDS011;3145;42.726;23.342;2023-06-19T00:36:16;9.87;;;9.07;;
6223;SDS011;3145;42.726;23.342;2023-06-19T00:38:45;11.17;;;10.13;;
6223;SDS011;3145;42.726;23.342;2023-06-19T00:41:13;11.50;;;9.60;;
6223;SDS011;3145;42.726;23.342;2023-06-19T00:43:42;9.40;;;8.60;;
6223;SDS011;3145;42.726;23.342;2023-06-19T00:46:09;12.13;;;9.10;;
6223;SDS011;3145;42.726;23.342;2023-06-19T00:48:37;10.20;;;9.20;;
6223;SDS011;3145;42.726;23.342;2023-06-19T00:51:05;10.03;;;9.03;;
6223;SDS011;3145;42.726;23.342;2023-06-19T00:53:32;9.27;;;8.57;;
6223;SDS011;3145;42.726;23.342;2023-06-19T00:55:59;10.17;;;8.57;;
6223;SDS011;3145;42.726;23.342;2023-06-19T00:58:26;11.40;;;8.60;;
6223;SDS011;3145;42.726;23.342;2023-06-19T01:00:55;9.87;;;8.27;;
6223;SDS011;3145;42.726;23.342;2023-06-19T01:03:22;10.30;;;8.50;;
6223;SDS011;3145;42.726;23.342;2023-06-19T01:05:51;12.47;;;8.33;;
6223;SDS011;3145;42.726;23.342;2023-06-19T01:08:40;9.50;;;8.40;;
6223;SDS011;3145;42.726;23.342;2023-06-19T01:11:11;10.43;;;8.50;;
6223;SDS011;3145;42.726;23.342;2023-06-19T01:13:44;10.47;;;8.87;;
6223;SDS011;3145;42.726;23.342;2023-06-19T01:16:15;9.43;;;8.53;;
6223;SDS011;3145;42.726;23.342;2023-06-19T01:18:42;9.37;;;8.40;;
6223;SDS011;3145;42.726;23.342;2023-06-19T01:21:11;8.97;;;8.17;;
6223;SDS011;3145;42.726;23.342;2023-06-19T01:23:40;9.40;;;8.07;;
6223;SDS011;3145;42.726;23.342;2023-06-19T01:26:07;9.90;;;8.90;;
6223;SDS011;3145;42.726;23.342;2023-06-19T01:28:33;9.70;;;8.90;;
6223;SDS011;3145;42.726;23.342;2023-06-19T01:31:02;9.53;;;8.63;;
6223;SDS011;3145;42.726;23.342;2023-06-19T01:33:32;9.40;;;8.70;;
6223;SDS011;3145;42.726;23.342;2023-06-19T01:36:02;9.70;;;8.70;;
6223;SDS011;3145;42.726;23.342;2023-06-19T01:38:30;12.73;;;9.07;;
6223;SDS011;3145;42.726;23.342;2023-06-19T01:40:59;8.73;;;8.03;;
6223;SDS011;3145;42.726;23.342;2023-06-19T01:43:27;9.43;;;8.10;;
6223;SDS011;3145;42.726;23.342;2023-06-19T01:45:57;11.00;;;7.80;;
6223;SDS011;3145;42.726;23.342;2023-06-19T01:48:26;8.80;;;7.70;;
6223;SDS011;3145;42.726;23.342;2023-06-19T01:50:53;8.80;;;7.90;;
6223;SDS011;3145;42.726;23.342;2023-06-19T01:53:20;8.77;;;8.00;;
6223;SDS011;3145;42.726;23.342;2023-06-19T01:55:47;8.10;;;7.30;;
6223;SDS011;3145;42.726;23.342;2023-06-19T01:58:15;12.43;;;8.83;;
6223;SDS011;3145;42.726;23.342;2023-06-19T02:00:42;8.93;;;8.03;;
6223;SDS011;3145;42.726;23.342;2023-06-19T02:03:09;8.93;;;8.20;;
6223;SDS011;3145;42.726;23.342;2023-06-19T02:05:35;8.10;;;7.50;;
6223;SDS011;3145;42.726;23.342;2023-06-19T02:08:04;14.07;;;8.50;;
6223;SDS011;3145;42.726;23.342;2023-06-19T02:10:31;12.97;;;8.03;;
6223;SDS011;3145;42.726;23.342;2023-06-19T02:12:58;10.50;;;8.23;;
6223;SDS011;3145;42.726;23.342;2023-06-19T02:15:26;9.67;;;7.80;;
6223;SDS011;3145;42.726;23.342;2023-06-19T02:17:53;9.17;;;8.20;;
6223;SDS011;3145;42.726;23.342;2023-06-19T02:20:22;9.90;;;8.23;;
6223;SDS011;3145;42.726;23.342;2023-06-19T02:22:50;9.13;;;8.23;;
6223;SDS011;3145;42.726;23.342;2023-06-19T02:25:17;8.77;;;8.10;;
6223;SDS011;3145;42.726;23.342;2023-06-19T02:27:44;11.63;;;8.33;;
6223;SDS011;3145;42.726;23.342;2023-06-19T02:30:11;8.67;;;7.67;;
6223;SDS011;3145;42.726;23.342;2023-06-19T02:32:39;8.30;;;7.70;;
6223;SDS011;3145;42.726;23.342;2023-06-19T02:35:07;9.40;;;8.00;;
6223;SDS011;3145;42.726;23.342;2023-06-19T02:37:35;10.30;;;9.23;;
6223;SDS011;3145;42.726;23.342;2023-06-19T02:40:02;12.00;;;8.37;;
6223;SDS011;3145;42.726;23.342;2023-06-19T02:42:30;8.50;;;7.67;;
6223;SDS011;3145;42.726;23.342;2023-06-19T02:44:56;9.07;;;8.33;;
6223;SDS011;3145;42.726;23.342;2023-06-19T02:47:28;8.93;;;8.03;;
6223;SDS011;3145;42.726;23.342;2023-06-19T02:49:56;10.30;;;7.77;;
6223;SDS011;3145;42.726;23.342;2023-06-19T02:52:23;9.27;;;8.40;;
6223;SDS011;3145;42.726;23.342;2023-06-19T02:54:50;9.63;;;8.37;;
6223;SDS011;3145;42.726;23.342;2023-06-19T02:57:16;9.17;;;8.47;;
6223;SDS011;3145;42.726;23.342;2023-06-19T02:59:43;8.63;;;7.83;;
6223;SDS011;3145;42.726;23.342;2023-06-19T03:02:11;9.27;;;8.07;;
6223;SDS011;3145;42.726;23.342;2023-06-19T03:04:38;11.40;;;8.93;;
6223;SDS011;3145;42.726;23.342;2023-06-19T03:07:08;10.27;;;9.37;;
6223;SDS011;3145;42.726;23.342;2023-06-19T03:09:34;14.10;;;9.43;;
6223;SDS011;3145;42.726;23.342;2023-06-19T03:12:02;10.13;;;9.03;;
6223;SDS011;3145;42.726;23.342;2023-06-19T03:14:29;10.17;;;8.90;;
6223;SDS011;3145;42.726;23.342;2023-06-19T03:16:55;10.93;;;9.80;;
6223;SDS011;3145;42.726;23.342;2023-06-19T03:19:22;11.63;;;10.43;;
6223;SDS011;3145;42.726;23.342;2023-06-19T03:21:49;11.93;;;9.60;;
6223;SDS011;3145;42.726;23.342;2023-06-19T03:24:17;10.53;;;9.43;;
6223;SDS011;3145;42.726;23.342;2023-06-19T03:26:44;10.27;;;9.23;;
6223;SDS011;3145;42.726;23.342;2023-06-19T03:29:11;9.90;;;8.93;;
6223;SDS011;3145;42.726;23.342;2023-06-19T03:31:38;10.53;;;9.40;;
6223;SDS011;3145;42.726;23.342;2023-06-19T03:34:05;9.73;;;8.93;;
6223;SDS011;3145;42.726;23.342;2023-06-19T03:36:32;8.90;;;8.20;;
6223;SDS011;3145;42.726;23.342;2023-06-19T03:38:58;10.17;;;8.57;;
6223;SDS011;3145;42.726;23.342;2023-06-19T03:41:27;9.40;;;8.53;;
6223;SDS011;3145;42.726;23.342;2023-06-19T03:43:53;14.47;;;8.93;;
6223;SDS011;3145;42.726;23.342;2023-06-19T03:46:20;11.30;;;9.30;;
6223;SDS011;3145;42.726;23.342;2023-06-19T03:48:47;8.63;;;7.90;;
6223;SDS011;3145;42.726;23.342;2023-06-19T03:51:13;9.80;;;8.07;;
6223;SDS011;3145;42.726;23.342;2023-06-19T03:53:40;9.43;;;8.50;;
6223;SDS011;3145;42.726;23.342;2023-06-19T03:56:08;10.63;;;7.63;;
6223;SDS011;3145;42.726;23.342;2023-06-19T03:58:36;11.30;;;8.20;;
6223;SDS011;3145;42.726;23.342;2023-06-19T04:01:03;8.20;;;7.40;;
6223;SDS011;3145;42.726;23.342;2023-06-19T04:03:30;12.47;;;7.40;;
6223;SDS011;3145;42.726;23.342;2023-06-19T04:05:57;7.13;;;6.43;;
6223;SDS011;3145;42.726;23.342;2023-06-19T04:08:24;7.97;;;7.37;;
6223;SDS011;3145;42.726;23.342;2023-06-19T04:10:51;8.27;;;6.20;;
6223;SDS011;3145;42.726;23.342;2023-06-19T04:13:17;6.73;;;6.03;;
6223;SDS011;3145;42.726;23.342;2023-06-19T04:15:46;7.03;;;5.97;;
6223;SDS011;3145;42.726;23.342;2023-06-19T04:18:12;7.43;;;6.43;;
6223;SDS011;3145;42.726;23.342;2023-06-19T04:20:39;7.17;;;6.37;;
6223;SDS011;3145;42.726;23.342;2023-06-19T04:23:06;7.40;;;6.70;;
6223;SDS011;3145;42.726;23.342;2023-06-19T04:25:33;7.67;;;6.93;;
6223;SDS011;3145;42.726;23.342;2023-06-19T04:27:59;6.90;;;6.00;;
6223;SDS011;3145;42.726;23.342;2023-06-19T04:30:28;6.63;;;6.03;;
6223;SDS011;3145;42.726;23.342;2023-06-19T04:32:56;7.30;;;5.93;;
6223;SDS011;3145;42.726;23.342;2023-06-19T04:35:23;8.93;;;6.27;;
6223;SDS011;3145;42.726;23.342;2023-06-19T04:37:50;6.53;;;5.93;;
6223;SDS011;3145;42.726;23.342;2023-06-19T04:40:17;6.23;;;5.63;;
6223;SDS011;3145;42.726;23.342;2023-06-19T04:42:43;8.23;;;5.97;;
6223;SDS011;3145;42.726;23.342;2023-06-19T04:45:10;6.53;;;5.83;;
6223;SDS011;3145;42.726;23.342;2023-06-19T04:47:37;6.50;;;5.90;;
6223;SDS011;3145;42.726;23.342;2023-06-19T04:50:06;7.83;;;5.50;;
6223;SDS011;3145;42.726;23.342;2023-06-19T04:52:34;4.80;;;4.50;;
6223;SDS011;3145;42.726;23.342;2023-06-19T04:55:01;13.43;;;5.47;;
6223;SDS011;3145;42.726;23.342;2023-06-19T04:57:28;6.25;;;4.72;;
6223;SDS011;3145;42.726;23.342;2023-06-19T04:59:54;5.47;;;5.00;;
6223;SDS011;3145;42.726;23.342;2023-06-19T05:02:21;8.05;;;4.70;;
6223;SDS011;3145;42.726;23.342;2023-06-19T05:04:49;8.00;;;5.85;;
6223;SDS011;3145;42.726;23.342;2023-06-19T05:07:17;8.25;;;7.15;;
6223;SDS011;3145;42.726;23.342;2023-06-19T05:09:44;7.03;;;5.35;;
6223;SDS011;3145;42.726;23.342;2023-06-19T05:12:10;7.40;;;5.65;;
6223;SDS011;3145;42.726;23.342;2023-06-19T05:14:37;6.60;;;5.95;;
6223;SDS011;3145;42.726;23.342;2023-06-19T05:17:04;6.38;;;5.80;;
6223;SDS011;3145;42.726;23.342;2023-06-19T05:19:31;5.93;;;5.40;;
6223;SDS011;3145;42.726;23.342;2023-06-19T05:21:58;5.35;;;4.82;;
6223;SDS011;3145;42.726;23.342;2023-06-19T05:24:26;4.95;;;4.55;;
6223;SDS011;3145;42.726;23.342;2023-06-19T05:26:53;8.15;;;5.63;;
6223;SDS011;3145;42.726;23.342;2023-06-19T05:29:20;4.85;;;4.50;;
6223;SDS011;3145;42.726;23.342;2023-06-19T05:31:46;8.35;;;4.47;;
6223;SDS011;3145;42.726;23.342;2023-06-19T05:34:13;6.30;;;4.55;;
6223;SDS011;3145;42.726;23.342;2023-06-19T05:36:40;4.70;;;4.30;;
6223;SDS011;3145;42.726;23.342;2023-06-19T05:39:10;6.38;;;4.45;;
6223;SDS011;3145;42.726;23.342;2023-06-19T05:41:38;6.53;;;4.95;;
6223;SDS011;3145;42.726;23.342;2023-06-19T05:44:05;7.57;;;5.20;;
6223;SDS011;3145;42.726;23.342;2023-06-19T05:46:31;8.32;;;5.47;;
6223;SDS011;3145;42.726;23.342;2023-06-19T05:48:58;8.82;;;5.78;;
6223;SDS011;3145;42.726;23.342;2023-06-19T05:51:25;4.80;;;4.43;;
6223;SDS011;3145;42.726;23.342;2023-06-19T05:53:51;6.95;;;4.93;;
6223;SDS011;3145;42.726;23.342;2023-06-19T05:56:18;5.55;;;5.05;;
6223;SDS011;3145;42.726;23.342;2023-06-19T05:58:46;5.40;;;4.95;;
6223;SDS011;3145;42.726;23.342;2023-06-19T06:01:13;4.95;;;4.30;;
6223;SDS011;3145;42.726;23.342;2023-06-19T06:03:40;7.47;;;5.32;;
6223;SDS011;3145;42.726;23.342;2023-06-19T06:06:06;5.03;;;4.57;;
6223;SDS011;3145;42.726;23.342;2023-06-19T06:08:33;5.45;;;4.95;;
6223;SDS011;3145;42.726;23.342;2023-06-19T06:11:01;5.55;;;4.40;;
6223;SDS011;3145;42.726;23.342;2023-06-19T06:13:28;7.43;;;4.40;;
6223;SDS011;3145;42.726;23.342;2023-06-19T06:15:56;4.97;;;4.30;;
6223;SDS011;3145;42.726;23.342;2023-06-19T06:18:23;4.35;;;4.05;;
6223;SDS011;3145;42.726;23.342;2023-06-19T06:20:50;4.90;;;4.50;;
6223;SDS011;3145;42.726;23.342;2023-06-19T06:23:17;5.53;;;4.82;;
6223;SDS011;3145;42.726;23.342;2023-06-19T06:25:43;9.00;;;5.05;;
6223;SDS011;3145;42.726;23.342;2023-06-19T06:28:11;5.43;;;4.93;;
6223;SDS011;3145;42.726;23.342;2023-06-19T06:30:37;4.30;;;4.00;;
6223;SDS011;3145;42.726;23.342;2023-06-19T06:33:06;4.80;;;3.83;;
6223;SDS011;3145;42.726;23.342;2023-06-19T06:35:32;5.55;;;3.72;;
6223;SDS011;3145;42.726;23.342;2023-06-19T06:38:00;7.50;;;4.15;;
6223;SDS011;3145;42.726;23.342;2023-06-19T06:40:27;7.10;;;3.95;;
6223;SDS011;3145;42.726;23.342;2023-06-19T06:42:54;6.07;;;3.67;;
6223;SDS011;3145;42.726;23.342;2023-06-19T06:45:21;4.53;;;4.07;;
6223;SDS011;3145;42.726;23.342;2023-06-19T06:47:48;4.05;;;3.72;;
6223;SDS011;3145;42.726;23.342;2023-06-19T06:50:16;5.70;;;4.30;;
6223;SDS011;3145;42.726;23.342;2023-06-19T06:52:43;4.68;;;4.30;;
6223;SDS011;3145;42.726;23.342;2023-06-19T06:55:10;6.32;;;5.10;;
6223;SDS011;3145;42.726;23.342;2023-06-19T06:57:36;4.90;;;4.50;;
6223;SDS011;3145;42.726;23.342;2023-06-19T07:00:04;5.93;;;4.18;;
6223;SDS011;3145;42.726;23.342;2023-06-19T07:02:34;4.13;;;3.83;;
6223;SDS011;3145;42.726;23.342;2023-06-19T07:05:01;7.45;;;4.70;;
6223;SDS011;3145;42.726;23.342;2023-06-19T07:07:29;6.13;;;3.95;;
6223;SDS011;3145;42.726;23.342;2023-06-19T07:09:56;7.82;;;5.72;;
6223;SDS011;3145;42.726;23.342;2023-06-19T07:12:23;15.48;;;8.27;;
6223;SDS011;3145;42.726;23.342;2023-06-19T07:14:52;8.50;;;6.65;;
6223;SDS011;3145;42.726;23.342;2023-06-19T07:17:19;5.18;;;4.68;;
6223;SDS011;3145;42.726;23.342;2023-06-19T07:19:46;5.13;;;4.18;;
6223;SDS011;3145;42.726;23.342;2023-06-19T07:22:13;5.30;;;4.15;;
6223;SDS011;3145;42.726;23.342;2023-06-19T07:24:41;6.20;;;4.32;;
6223;SDS011;3145;42.726;23.342;2023-06-19T07:27:08;5.07;;;4.50;;
6223;SDS011;3145;42.726;23.342;2023-06-19T07:29:34;11.15;;;4.53;;
6223;SDS011;3145;42.726;23.342;2023-06-19T07:32:01;9.90;;;4.45;;
6223;SDS011;3145;42.726;23.342;2023-06-19T07:34:29;6.55;;;3.00;;
6223;SDS011;3145;42.726;23.342;2023-06-19T07:36:56;25.10;;;3.70;;
6223;SDS011;3145;42.726;23.342;2023-06-19T07:39:23;4.38;;;3.92;;
6223;SDS011;3145;42.726;23.342;2023-06-19T07:41:51;4.55;;;4.18;;
6223;SDS011;3145;42.726;23.342;2023-06-19T07:44:17;4.13;;;3.83;;
6223;SDS011;3145;42.726;23.342;2023-06-19T07:46:46;4.40;;;3.95;;
6223;SDS011;3145;42.726;23.342;2023-06-19T07:49:12;4.53;;;3.92;;
6223;SDS011;3145;42.726;23.342;2023-06-19T07:51:39;4.72;;;4.32;;
6223;SDS011;3145;42.726;23.342;2023-06-19T07:54:06;5.10;;;4.78;;
6223;SDS011;3145;42.726;23.342;2023-06-19T07:56:32;4.85;;;4.03;;
6223;SDS011;3145;42.726;23.342;2023-06-19T07:59:01;4.72;;;3.70;;
6223;SDS011;3145;42.726;23.342;2023-06-19T08:01:28;3.88;;;3.38;;
6223;SDS011;3145;42.726;23.342;2023-06-19T08:03:55;6.38;;;4.43;;
6223;SDS011;3145;42.726;23.342;2023-06-19T08:06:21;4.20;;;3.88;;
6223;SDS011;3145;42.726;23.342;2023-06-19T08:08:48;4.45;;;3.92;;
6223;SDS011;3145;42.726;23.342;2023-06-19T08:11:15;5.10;;;3.58;;
6223;SDS011;3145;42.726;23.342;2023-06-19T08:13:41;8.77;;;3.58;;
6223;SDS011;3145;42.726;23.342;2023-06-19T08:16:09;3.75;;;3.45;;
6223;SDS011;3145;42.726;23.342;2023-06-19T08:18:36;3.53;;;3.30;;
6223;SDS011;3145;42.726;23.342;2023-06-19T08:21:03;3.55;;;3.35;;
6223;SDS011;3145;42.726;23.342;2023-06-19T08:23:30;3.78;;;3.47;;
6223;SDS011;3145;42.726;23.342;2023-06-19T08:25:56;5.25;;;3.78;;
6223;SDS011;3145;42.726;23.342;2023-06-19T08:28:23;4.63;;;4.32;;
6223;SDS011;3145;42.726;23.342;2023-06-19T08:30:50;5.05;;;3.80;;
6223;SDS011;3145;42.726;23.342;2023-06-19T08:33:18;5.88;;;3.97;;
6223;SDS011;3145;42.726;23.342;2023-06-19T08:35:44;7.15;;;3.72;;
6223;SDS011;3145;42.726;23.342;2023-06-19T08:38:13;5.82;;;3.92;;
6223;SDS011;3145;42.726;23.342;2023-06-19T08:40:40;4.43;;;3.88;;
6223;SDS011;3145;42.726;23.342;2023-06-19T08:43:07;4.20;;;3.85;;
6223;SDS011;3145;42.726;23.342;2023-06-19T08:45:34;4.80;;;4.13;;
6223;SDS011;3145;42.726;23.342;2023-06-19T08:48:01;4.90;;;4.40;;
6223;SDS011;3145;42.726;23.342;2023-06-19T08:50:30;4.03;;;3.72;;
6223;SDS011;3145;42.726;23.342;2023-06-19T08:52:58;3.55;;;3.25;;
6223;SDS011;3145;42.726;23.342;2023-06-19T08:55:25;4.28;;;3.72;;
6223;SDS011;3145;42.726;23.342;2023-06-19T08:57:52;3.72;;;3.42;;
6223;SDS011;3145;42.726;23.342;2023-06-19T09:00:25;3.50;;;3.30;;
6223;SDS011;3145;42.726;23.342;2023-06-19T09:02:59;3.60;;;3.40;;
6223;SDS011;3145;42.726;23.342;2023-06-19T09:05:26;4.80;;;4.40;;
6223;SDS011;3145;42.726;23.342;2023-06-19T09:07:55;3.95;;;3.55;;
6223;SDS011;3145;42.726;23.342;2023-06-19T09:10:23;3.78;;;3.47;;
6223;SDS011;3145;42.726;23.342;2023-06-19T09:12:57;4.10;;;3.70;;
6223;SDS011;3145;42.726;23.342;2023-06-19T09:15:26;3.35;;;2.78;;
6223;SDS011;3145;42.726;23.342;2023-06-19T09:18:04;3.63;;;3.42;;
6223;SDS011;3145;42.726;23.342;2023-06-19T09:20:33;3.13;;;2.92;;
6223;SDS011;3145;42.726;23.342;2023-06-19T09:23:02;4.72;;;3.60;;
6223;SDS011;3145;42.726;23.342;2023-06-19T09:25:29;4.53;;;3.53;;
6223;SDS011;3145;42.726;23.342;2023-06-19T09:27:56;3.50;;;3.30;;
6223;SDS011;3145;42.726;23.342;2023-06-19T09:30:23;3.95;;;3.67;;
6223;SDS011;3145;42.726;23.342;2023-06-19T09:32:50;3.85;;;3.55;;
6223;SDS011;3145;42.726;23.342;2023-06-19T09:35:16;5.75;;;3.70;;
6223;SDS011;3145;42.726;23.342;2023-06-19T09:37:43;5.05;;;3.53;;
6223;SDS011;3145;42.726;23.342;2023-06-19T09:40:13;4.03;;;3.72;;
6223;SDS011;3145;42.726;23.342;2023-06-19T09:42:40;3.58;;;3.28;;
6223;SDS011;3145;42.726;23.342;2023-06-19T09:45:09;3.53;;;3.33;;
6223;SDS011;3145;42.726;23.342;2023-06-19T09:47:37;7.30;;;3.72;;
6223;SDS011;3145;42.726;23.342;2023-06-19T09:50:06;3.65;;;3.35;;
6223;SDS011;3145;42.726;23.342;2023-06-19T09:52:33;4.63;;;3.58;;
6223;SDS011;3145;42.726;23.342;2023-06-19T09:55:01;4.40;;;4.03;;
6223;SDS011;3145;42.726;23.342;2023-06-19T09:57:30;4.90;;;4.20;;
6223;SDS011;3145;42.726;23.342;2023-06-19T09:59:58;3.67;;;3.40;;
6223;SDS011;3145;42.726;23.342;2023-06-19T10:02:34;3.65;;;3.35;;
6223;SDS011;3145;42.726;23.342;2023-06-19T10:05:02;3.80;;;3.50;;
6223;SDS011;3145;42.726;23.342;2023-06-19T10:07:32;4.47;;;3.47;;
6223;SDS011;3145;42.726;23.342;2023-06-19T10:10:00;3.75;;;3.47;;
6223;SDS011;3145;42.726;23.342;2023-06-19T10:12:37;3.88;;;3.58;;
6223;SDS011;3145;42.726;23.342;2023-06-19T10:15:14;4.50;;;3.33;;
6223;SDS011;3145;42.726;23.342;2023-06-19T10:17:44;4.15;;;3.75;;
6223;SDS011;3145;42.726;23.342;2023-06-19T10:20:22;5.00;;;3.97;;
6223;SDS011;3145;42.726;23.342;2023-06-19T10:22:51;4.15;;;3.78;;
6223;SDS011;3145;42.726;23.342;2023-06-19T10:25:22;4.30;;;3.58;;
6223;SDS011;3145;42.726;23.342;2023-06-19T10:27:50;3.22;;;2.92;;
6223;SDS011;3145;42.726;23.342;2023-06-19T10:30:18;4.95;;;3.42;;
6223;SDS011;3145;42.726;23.342;2023-06-19T10:32:45;4.95;;;3.65;;
6223;SDS011;3145;42.726;23.342;2023-06-19T10:35:12;5.45;;;4.13;;
6223;SDS011;3145;42.726;23.342;2023-06-19T10:37:39;3.83;;;3.50;;
6223;SDS011;3145;42.726;23.342;2023-06-19T10:40:07;4.53;;;3.92;;
6223;SDS011;3145;42.726;23.342;2023-06-19T10:42:36;7.43;;;6.40;;
6223;SDS011;3145;42.726;23.342;2023-06-19T10:45:05;9.00;;;4.95;;
6223;SDS011;3145;42.726;23.342;2023-06-19T10:47:34;7.85;;;5.10;;
6223;SDS011;3145;42.726;23.342;2023-06-19T10:50:00;11.98;;;7.15;;
6223;SDS011;3145;42.726;23.342;2023-06-19T10:52:28;5.25;;;4.75;;
6223;SDS011;3145;42.726;23.342;2023-06-19T10:54:54;7.50;;;3.67;;
6223;SDS011;3145;42.726;23.342;2023-06-19T10:57:26;6.07;;;4.00;;
6223;SDS011;3145;42.726;23.342;2023-06-19T10:59:54;3.50;;;3.30;;
6223;SDS011;3145;42.726;23.342;2023-06-19T11:02:22;3.50;;;3.30;;
6223;SDS011;3145;42.726;23.342;2023-06-19T11:04:49;3.72;;;3.50;;
6223;SDS011;3145;42.726;23.342;2023-06-19T11:07:18;4.10;;;3.72;;
6223;SDS011;3145;42.726;23.342;2023-06-19T11:09:45;5.18;;;3.92;;
6223;SDS011;3145;42.726;23.342;2023-06-19T11:12:11;4.25;;;3.40;;
6223;SDS011;3145;42.726;23.342;2023-06-19T11:14:44;5.63;;;5.22;;
6223;SDS011;3145;42.726;23.342;2023-06-19T11:17:11;4.50;;;4.13;;
6223;SDS011;3145;42.726;23.342;2023-06-19T11:19:39;4.10;;;3.70;;
6223;SDS011;3145;42.726;23.342;2023-06-19T11:22:08;7.97;;;4.10;;
6223;SDS011;3145;42.726;23.342;2023-06-19T11:24:36;4.53;;;3.92;;
6223;SDS011;3145;42.726;23.342;2023-06-19T11:27:03;6.05;;;4.55;;
6223;SDS011;3145;42.726;23.342;2023-06-19T11:29:30;6.10;;;4.68;;
6223;SDS011;3145;42.726;23.342;2023-06-19T11:32:04;5.75;;;4.10;;
6223;SDS011;3145;42.726;23.342;2023-06-19T11:34:32;23.85;;;6.43;;
6223;SDS011;3145;42.726;23.342;2023-06-19T11:37:10;4.88;;;4.13;;
6223;SDS011;3145;42.726;23.342;2023-06-19T11:39:38;4.25;;;3.85;;
6223;SDS011;3145;42.726;23.342;2023-06-19T11:42:06;4.55;;;4.25;;
6223;SDS011;3145;42.726;23.342;2023-06-19T11:44:33;6.15;;;4.95;;
6223;SDS011;3145;42.726;23.342;2023-06-19T11:46:59;4.63;;;4.22;;
6223;SDS011;3145;42.726;23.342;2023-06-19T11:49:27;4.72;;;4.32;;
6223;SDS011;3145;42.726;23.342;2023-06-19T11:52:00;6.20;;;5.68;;
6223;SDS011;3145;42.726;23.342;2023-06-19T11:54:28;5.45;;;4.95;;
6223;SDS011;3145;42.726;23.342;2023-06-19T11:56:55;4.20;;;3.80;;
6223;SDS011;3145;42.726;23.342;2023-06-19T11:59:22;4.80;;;4.00;;
6223;SDS011;3145;42.726;23.342;2023-06-19T12:01:48;4.40;;;4.10;;
6223;SDS011;3145;42.726;23.342;2023-06-19T12:04:15;4.28;;;3.83;;
6223;SDS011;3145;42.726;23.342;2023-06-19T12:06:42;5.80;;;4.72;;
6223;SDS011;3145;42.726;23.342;2023-06-19T12:09:09;3.95;;;3.75;;
6223;SDS011;3145;42.726;23.342;2023-06-19T12:11:38;5.30;;;4.55;;
6223;SDS011;3145;42.726;23.342;2023-06-19T12:14:04;4.15;;;3.85;;
6223;SDS011;3145;42.726;23.342;2023-06-19T12:16:31;5.28;;;4.47;;
6223;SDS011;3145;42.726;23.342;2023-06-19T12:18:58;5.15;;;4.72;;
6223;SDS011;3145;42.726;23.342;2023-06-19T12:21:25;11.27;;;5.57;;
6223;SDS011;3145;42.726;23.342;2023-06-19T12:23:51;5.47;;;4.70;;
6223;SDS011;3145;42.726;23.342;2023-06-19T12:26:18;5.97;;;4.50;;
6223;SDS011;3145;42.726;23.342;2023-06-19T12:28:47;5.10;;;4.60;;
6223;SDS011;3145;42.726;23.342;2023-06-19T12:31:14;5.57;;;4.75;;
6223;SDS011;3145;42.726;23.342;2023-06-19T12:33:40;7.00;;;4.72;;
6223;SDS011;3145;42.726;23.342;2023-06-19T12:36:10;4.63;;;4.18;;
6223;SDS011;3145;42.726;23.342;2023-06-19T12:38:38;5.20;;;4.22;;
6223;SDS011;3145;42.726;23.342;2023-06-19T12:41:05;4.22;;;3.88;;
6223;SDS011;3145;42.726;23.342;2023-06-19T12:43:32;3.83;;;3.58;;
6223;SDS011;3145;42.726;23.342;2023-06-19T12:46:00;5.72;;;3.85;;
6223;SDS011;3145;42.726;23.342;2023-06-19T12:48:27;7.43;;;3.90;;
6223;SDS011;3145;42.726;23.342;2023-06-19T12:50:54;4.57;;;3.95;;
6223;SDS011;3145;42.726;23.342;2023-06-19T12:53:21;4.97;;;4.38;;
6223;SDS011;3145;42.726;23.342;2023-06-19T12:55:51;4.40;;;4.10;;
6223;SDS011;3145;42.726;23.342;2023-06-19T12:58:18;4.30;;;3.22;;
6223;SDS011;3145;42.726;23.342;2023-06-19T13:00:45;4.45;;;3.50;;
6223;SDS011;3145;42.726;23.342;2023-06-19T13:03:13;8.73;;;4.10;;
6223;SDS011;3145;42.726;23.342;2023-06-19T13:05:39;3.88;;;3.55;;
6223;SDS011;3145;42.726;23.342;2023-06-19T13:08:06;4.43;;;4.05;;
6223;SDS011;3145;42.726;23.342;2023-06-19T13:10:33;5.85;;;4.20;;
6223;SDS011;3145;42.726;23.342;2023-06-19T13:13:00;7.60;;;3.47;;
6223;SDS011;3145;42.726;23.342;2023-06-19T13:15:26;4.10;;;3.80;;
6223;SDS011;3145;42.726;23.342;2023-06-19T13:17:53;4.22;;;3.92;;
6223;SDS011;3145;42.726;23.342;2023-06-19T13:20:21;3.65;;;3.33;;
6223;SDS011;3145;42.726;23.342;2023-06-19T13:22:48;4.00;;;3.70;;
6223;SDS011;3145;42.726;23.342;2023-06-19T13:25:15;5.05;;;3.72;;
6223;SDS011;3145;42.726;23.342;2023-06-19T13:27:42;6.88;;;4.00;;
6223;SDS011;3145;42.726;23.342;2023-06-19T13:30:09;3.80;;;3.50;;
6223;SDS011;3145;42.726;23.342;2023-06-19T13:32:36;7.50;;;3.70;;
6223;SDS011;3145;42.726;23.342;2023-06-19T13:35:03;4.13;;;3.63;;
6223;SDS011;3145;42.726;23.342;2023-06-19T13:37:33;3.65;;;3.22;;
6223;SDS011;3145;42.726;23.342;2023-06-19T13:40:00;3.63;;;3.33;;
6223;SDS011;3145;42.726;23.342;2023-06-19T13:42:29;4.10;;;3.80;;
6223;SDS011;3145;42.726;23.342;2023-06-19T13:44:56;4.93;;;4.47;;
6223;SDS011;3145;42.726;23.342;2023-06-19T13:47:23;3.40;;;3.10;;
6223;SDS011;3145;42.726;23.342;2023-06-19T13:49:51;6.63;;;3.63;;
6223;SDS011;3145;42.726;23.342;2023-06-19T13:52:18;4.10;;;3.60;;
6223;SDS011;3145;42.726;23.342;2023-06-19T13:54:46;4.03;;;3.58;;
6223;SDS011;3145;42.726;23.342;2023-06-19T13:57:13;3.75;;;3.42;;
6223;SDS011;3145;42.726;23.342;2023-06-19T13:59:40;4.85;;;3.92;;
6223;SDS011;3145;42.726;23.342;2023-06-19T14:02:08;6.47;;;3.88;;
6223;SDS011;3145;42.726;23.342;2023-06-19T14:04:35;5.13;;;3.28;;
6223;SDS011;3145;42.726;23.342;2023-06-19T14:07:02;6.20;;;3.70;;
6223;SDS011;3145;42.726;23.342;2023-06-19T14:09:30;4.47;;;4.07;;
6223;SDS011;3145;42.726;23.342;2023-06-19T14:11:58;8.48;;;3.40;;
6223;SDS011;3145;42.726;23.342;2023-06-19T14:14:25;6.80;;;3.53;;
6223;SDS011;3145;42.726;23.342;2023-06-19T14:16:52;3.67;;;3.45;;
6223;SDS011;3145;42.726;23.342;2023-06-19T14:19:18;4.43;;;3.70;;
6223;SDS011;3145;42.726;23.342;2023-06-19T14:21:45;11.05;;;4.55;;
6223;SDS011;3145;42.726;23.342;2023-06-19T14:24:12;7.50;;;3.58;;
6223;SDS011;3145;42.726;23.342;2023-06-19T14:26:39;4.28;;;3.60;;
6223;SDS011;3145;42.726;23.342;2023-06-19T14:29:07;4.38;;;3.83;;
6223;SDS011;3145;42.726;23.342;2023-06-19T14:31:34;5.90;;;3.75;;
6223;SDS011;3145;42.726;23.342;2023-06-19T14:34:00;6.55;;;3.92;;
6223;SDS011;3145;42.726;23.342;2023-06-19T14:36:27;4.18;;;3.72;;
6223;SDS011;3145;42.726;23.342;2023-06-19T14:38:54;10.65;;;4.30;;
6223;SDS011;3145;42.726;23.342;2023-06-19T14:41:20;4.90;;;3.88;;
6223;SDS011;3145;42.726;23.342;2023-06-19T14:43:47;4.45;;;4.03;;
6223;SDS011;3145;42.726;23.342;2023-06-19T14:46:15;4.50;;;4.05;;
6223;SDS011;3145;42.726;23.342;2023-06-19T14:48:42;4.70;;;4.40;;
6223;SDS011;3145;42.726;23.342;2023-06-19T14:51:09;3.70;;;3.47;;
6223;SDS011;3145;42.726;23.342;2023-06-19T14:53:36;4.78;;;4.38;;
6223;SDS011;3145;42.726;23.342;2023-06-19T14:56:03;4.78;;;3.65;;
6223;SDS011;3145;42.726;23.342;2023-06-19T14:58:30;5.88;;;4.22;;
6223;SDS011;3145;42.726;23.342;2023-06-19T15:00:57;8.07;;;4.45;;